Lamoine, Maine
Current Conditions -  °F | °C
As of 3:55 AM on Wednesday 22 Oct 2014 (Local Time) from KBHB Reporting Station
Overcast Overcast  
Wind Chill: 42°   Ceiling: 7000
Heat Index: 48°   Visibility: 10mi
Dew Point: 46°   Wind: 17mph
Humidity: 93%   Direction: 40°NE
Pressure: 30.12"   Gusts: 25mph
Location:  44.6651°N, 68.3944°W
Report Text: KBHB 220755Z AUTO 04015G22KT 10SM OVC070 09/08 A3012 RMK AO1
Loading
Personal Weather Stations






























Interactive Weather Map
Tropical Storm Tracking
New forecast layout! Learn more

10-Day Weather Forecast

Advertisements
Track Severe Weather on mobile